Time;durP1;ratioP1;P1;durP2;ratioP2;P2;SDS_P1;SDS_P2;PMS_P1;PMS_P2;Temp;Humidity;BMP_temperature;BMP_pressure;BME280_temperature;BME280_humidity;BME280_pressure;Samples;Min_cycle;Max_cycle;Signal;HPM_P1;HPM_P2
2021/12/05 00:19:49;;;;;;;;;;;5.50;85.20;;;;;;5077986;28;20019;-86
2021/12/05 00:22:27;;;;;;;;;;;5.50;85.20;;;;;;5089689;28;19975;-85
2021/12/05 00:24:56;;;;;;;;;;;5.50;85.00;;;;;;5103519;28;19916;-85
2021/12/05 00:27:27;;;;;;;;;;;5.50;84.70;;;;;;5092675;28;19908;-86
2021/12/05 00:35:24;;;;;;;;;;;5.50;84.80;;;;;;5089520;28;20752;-86
2021/12/05 00:38:23;;;;;;;;;;;5.50;84.50;;;;;;5091801;28;20016;-86
2021/12/05 00:46:18;;;;;;;;;;;5.60;83.70;;;;;;5085146;28;20131;-84
2021/12/05 01:04:37;;;;;;;;;;;5.40;83.30;;;;;;5076100;28;20011;-83
2021/12/05 01:15:04;;;;;;;;;;;5.10;84.00;;;;;;5060484;28;19984;-82
2021/12/05 01:17:41;;;;;;;;;;;5.00;84.20;;;;;;5077653;28;20002;-81
2021/12/05 01:20:10;;;;;;;;;;;4.90;84.30;;;;;;5063321;28;19912;-82
2021/12/05 01:22:40;;;;;;;;;;;4.90;84.80;;;;;;5077929;28;19916;-83
2021/12/05 01:27:53;;;;;;;;;;;4.80;84.80;;;;;;5076712;28;19988;-82
2021/12/05 01:56:54;;;;;;;;;;;5.00;85.20;;;;;;5082278;28;19919;-79
2021/12/05 02:10:56;;;;;;;;;;;5.30;84.00;;;;;;4994891;28;19921;-80
2021/12/05 02:16:25;;;;;;;;;;;5.30;83.80;;;;;;5054868;28;19965;-79
2021/12/05 02:45:26;;;;;;;;;;;5.50;83.00;;;;;;5076426;28;20311;-81
2021/12/05 02:47:53;;;;;;;;;;;5.40;83.20;;;;;;5079005;28;19916;-80
2021/12/05 02:50:21;;;;;;;;;;;5.30;83.10;;;;;;5090843;28;19923;-81
2021/12/05 02:52:47;;;;;;;;;;;5.40;83.10;;;;;;5065528;28;19973;-81
2021/12/05 02:55:24;;;;;;;;;;;5.40;83.30;;;;;;5076811;28;20011;-81
2021/12/05 02:58:02;;;;;;;;;;;5.40;83.20;;;;;;5085325;28;19923;-79
2021/12/05 03:00:39;;;;;;;;;;;5.30;83.50;;;;;;5065859;28;19966;-80
2021/12/05 03:03:16;;;;;;;;;;;5.20;83.50;;;;;;5056690;28;19912;-81
2021/12/05 03:05:43;;;;;;;;;;;5.20;83.50;;;;;;5057184;28;20011;-79
2021/12/05 03:08:09;;;;;;;;;;;5.30;84.00;;;;;;5077804;28;19932;-84
2021/12/05 03:10:35;;;;;;;;;;;5.30;83.50;;;;;;5078777;28;19957;-81
2021/12/05 03:13:00;;;;;;;;;;;5.30;83.60;;;;;;5083325;28;20245;-82
2021/12/05 03:15:26;;;;;;;;;;;5.20;83.80;;;;;;5056459;28;19943;-80
2021/12/05 03:17:52;;;;;;;;;;;5.20;83.60;;;;;;5084735;28;20014;-82
2021/12/05 03:20:18;;;;;;;;;;;5.20;83.50;;;;;;5071806;28;19912;-81
2021/12/05 03:22:43;;;;;;;;;;;5.20;83.50;;;;;;5053971;28;19935;-82
2021/12/05 03:25:09;;;;;;;;;;;5.30;83.70;;;;;;5056709;28;20007;-81
2021/12/05 03:27:35;;;;;;;;;;;5.30;83.70;;;;;;5072657;28;20016;-81
2021/12/05 03:30:01;;;;;;;;;;;5.30;83.10;;;;;;5054597;28;20075;-82
2021/12/05 03:32:27;;;;;;;;;;;5.40;83.10;;;;;;5055999;28;19912;-81
2021/12/05 03:34:53;;;;;;;;;;;5.40;82.70;;;;;;5056216;28;20492;-81
2021/12/05 03:37:18;;;;;;;;;;;5.30;83.40;;;;;;5080844;28;19913;-81
2021/12/05 03:39:44;;;;;;;;;;;5.30;82.80;;;;;;5086112;28;20540;-81
2021/12/05 03:42:10;;;;;;;;;;;5.20;82.60;;;;;;5088902;28;19999;-81
2021/12/05 03:44:36;;;;;;;;;;;5.20;82.80;;;;;;5083297;28;19987;-81
2021/12/05 03:47:03;;;;;;;;;;;5.20;83.10;;;;;;5060625;28;19916;-82
2021/12/05 03:49:29;;;;;;;;;;;5.10;82.90;;;;;;5073118;28;19923;-82
2021/12/05 03:51:56;;;;;;;;;;;5.10;83.40;;;;;;5084034;28;19916;-81
2021/12/05 03:54:22;;;;;;;;;;;5.00;83.40;;;;;;5075407;28;19919;-82
2021/12/05 03:56:48;;;;;;;;;;;5.00;83.90;;;;;;5054682;28;19912;-81
2021/12/05 03:59:13;;;;;;;;;;;5.00;83.90;;;;;;5050551;28;19935;-81
2021/12/05 04:01:39;;;;;;;;;;;5.10;83.50;;;;;;5056754;28;20010;-82
2021/12/05 04:04:06;;;;;;;;;;;5.20;83.00;;;;;;5079779;28;19936;-82
2021/12/05 04:06:32;;;;;;;;;;;5.20;83.00;;;;;;5054317;28;19978;-82
2021/12/05 04:08:58;;;;;;;;;;;5.20;83.00;;;;;;5054503;28;19912;-82
2021/12/05 04:11:29;;;;;;;;;;;5.20;83.30;;;;;;5072178;28;19917;-82
2021/12/05 04:13:54;;;;;;;;;;;5.30;83.10;;;;;;5071865;28;19917;-82
2021/12/05 04:16:20;;;;;;;;;;;5.30;82.30;;;;;;5053464;28;19923;-81
2021/12/05 04:18:46;;;;;;;;;;;5.30;82.00;;;;;;5074638;28;20556;-81
2021/12/05 04:21:12;;;;;;;;;;;5.20;82.30;;;;;;5071903;28;19920;-81
2021/12/05 04:23:38;;;;;;;;;;;5.20;82.20;;;;;;5072184;28;19912;-84
2021/12/05 04:26:04;;;;;;;;;;;5.20;82.20;;;;;;5071557;28;20281;-81
2021/12/05 04:28:29;;;;;;;;;;;5.20;81.90;;;;;;5064867;28;20328;-82
2021/12/05 04:30:55;;;;;;;;;;;5.20;82.20;;;;;;5072245;28;20027;-81
2021/12/05 04:33:21;;;;;;;;;;;5.30;82.10;;;;;;5085882;28;19913;-81
2021/12/05 04:35:47;;;;;;;;;;;5.30;81.30;;;;;;5077892;28;19912;-82
2021/12/05 04:38:13;;;;;;;;;;;5.10;82.00;;;;;;5054315;28;20358;-82
2021/12/05 04:40:39;;;;;;;;;;;5.10;82.20;;;;;;5072025;28;19919;-82
2021/12/05 04:43:05;;;;;;;;;;;5.10;82.30;;;;;;5072165;28;19966;-81
2021/12/05 04:45:32;;;;;;;;;;;5.10;82.70;;;;;;5067642;28;19916;-82
2021/12/05 04:47:59;;;;;;;;;;;5.10;82.80;;;;;;5057832;28;20032;-82
2021/12/05 04:50:24;;;;;;;;;;;5.10;83.00;;;;;;5053686;28;19920;-82
2021/12/05 04:52:50;;;;;;;;;;;5.10;82.60;;;;;;5075919;28;19913;-82
2021/12/05 04:55:17;;;;;;;;;;;5.10;83.00;;;;;;5054544;28;20415;-81
2021/12/05 04:57:43;;;;;;;;;;;5.10;82.70;;;;;;5070090;28;19916;-82
2021/12/05 05:00:12;;;;;;;;;;;5.10;82.70;;;;;;5047983;28;19920;-82
2021/12/05 05:02:38;;;;;;;;;;;5.10;82.70;;;;;;5082243;28;19924;-82
2021/12/05 05:05:04;;;;;;;;;;;5.10;82.50;;;;;;5069271;28;19924;-82
2021/12/05 05:07:30;;;;;;;;;;;5.10;83.00;;;;;;5058561;28;19912;-82
2021/12/05 05:09:57;;;;;;;;;;;5.10;83.40;;;;;;5065391;28;19928;-81
2021/12/05 05:12:23;;;;;;;;;;;5.10;82.90;;;;;;5067561;28;20352;-82
2021/12/05 05:14:50;;;;;;;;;;;5.00;83.10;;;;;;5053403;28;19917;-82
2021/12/05 05:17:17;;;;;;;;;;;5.00;82.80;;;;;;5059015;28;19975;-82
2021/12/05 05:19:49;;;;;;;;;;;5.00;82.20;;;;;;5077967;28;19987;-82
2021/12/05 05:30:38;;;;;;;;;;;5.00;82.80;;;;;;5078324;28;19916;-81
2021/12/05 05:46:38;;;;;;;;;;;4.90;82.40;;;;;;5062220;28;20376;-82
2021/12/05 05:51:47;;;;;;;;;;;4.80;82.30;;;;;;5077072;28;19919;-81
2021/12/05 05:54:13;;;;;;;;;;;4.70;82.20;;;;;;5063225;28;19925;-81
2021/12/05 05:56:42;;;;;;;;;;;4.60;82.40;;;;;;5074196;28;19948;-82
2021/12/05 05:59:17;;;;;;;;;;;4.70;82.00;;;;;;5061833;28;19931;-82
2021/12/05 06:02:03;;;;;;;;;;;4.80;82.10;;;;;;5074105;28;20011;-83
2021/12/05 06:04:28;;;;;;;;;;;4.70;82.20;;;;;;5075225;28;20396;-83
2021/12/05 06:12:45;;;;;;;;;;;4.70;81.80;;;;;;5076580;28;19925;-84
2021/12/05 06:15:15;;;;;;;;;;;4.60;81.60;;;;;;5055712;28;20014;-84
2021/12/05 06:17:43;;;;;;;;;;;4.60;81.90;;;;;;5072884;28;19919;-84
2021/12/05 06:20:15;;;;;;;;;;;4.60;82.00;;;;;;5073486;28;19973;-84
2021/12/05 06:22:50;;;;;;;;;;;4.50;82.40;;;;;;5056359;28;20354;-84
2021/12/05 06:27:55;;;;;;;;;;;4.60;81.90;;;;;;5001196;28;20248;-84
2021/12/05 06:47:49;;;;;;;;;;;4.90;81.30;;;;;;5009773;28;19920;-84
2021/12/05 06:50:15;;;;;;;;;;;4.90;82.50;;;;;;4992885;28;19925;-84
2021/12/05 06:52:49;;;;;;;;;;;4.90;81.80;;;;;;5008353;28;19918;-84
2021/12/05 06:55:16;;;;;;;;;;;5.00;81.30;;;;;;4975203;28;19925;-84
2021/12/05 06:57:42;;;;;;;;;;;5.00;81.40;;;;;;4995810;28;19914;-86
2021/12/05 07:00:23;;;;;;;;;;;5.00;81.50;;;;;;4976163;28;19936;-85
2021/12/05 07:03:14;;;;;;;;;;;;;;;;;;;;;
2021/12/05 07:05:49;;;;;;;;;;;5.00;80.20;;;;;;5011864;28;19935;-85
2021/12/05 07:08:16;;;;;;;;;;;5.10;80.80;;;;;;4993670;28;19917;-85
2021/12/05 07:22:18;;;;;;;;;;;5.10;80.10;;;;;;4946780;28;20016;-85
2021/12/05 07:42:21;;;;;;;;;;;5.20;80.00;;;;;;4992651;28;20044;-84
2021/12/05 07:44:47;;;;;;;;;;;5.30;80.10;;;;;;4974797;28;19973;-84
2021/12/05 07:47:18;;;;;;;;;;;5.30;80.10;;;;;;4975149;28;19949;-84
2021/12/05 07:50:09;;;;;;;;;;;5.30;80.00;;;;;;4974037;28;19921;-83
2021/12/05 07:52:42;;;;;;;;;;;5.40;79.10;;;;;;5009346;28;19914;-84
2021/12/05 07:55:28;;;;;;;;;;;5.50;79.10;;;;;;4993538;28;19928;-84
2021/12/05 07:58:14;;;;;;;;;;;5.50;78.20;;;;;;4982103;28;19937;-85
2021/12/05 08:01:26;;;;;;;;;;;5.50;78.00;;;;;;5002425;28;20060;-86
2021/12/05 08:15:38;;;;;;;;;;;;;;;;;;;;;
2021/12/05 08:21:33;;;;;;;;;;;5.60;77.80;;;;;;4993182;28;19926;-85
2021/12/05 08:27:14;;;;;;;;;;;5.50;78.10;;;;;;4976423;28;19910;-84
2021/12/05 08:29:53;;;;;;;;;;;5.60;78.20;;;;;;4997227;28;20361;-85
2021/12/05 08:32:41;;;;;;;;;;;5.60;78.10;;;;;;4984339;28;19921;-84
2021/12/05 08:35:18;;;;;;;;;;;5.50;78.10;;;;;;4976486;28;20312;-84
2021/12/05 09:08:28;;;;;;;;;;;5.70;77.60;;;;;;4997696;28;19925;-84
2021/12/05 10:08:34;;;;;;;;;;;6.00;76.60;;;;;;4990710;28;19953;-82
2021/12/05 10:11:08;;;;;;;;;;;6.10;76.90;;;;;;4993504;28;19921;-81
2021/12/05 10:17:25;;;;;;;;;;;6.00;76.60;;;;;;4988191;28;19924;-82
2021/12/05 10:38:44;;;;;;;;;;;;;;;;;;;;;
2021/12/05 10:44:41;;;;;;;;;;;;;;;;;;;;;
2021/12/05 10:50:26;;;;;;;;;;;6.30;76.60;;;;;;4939843;28;19922;-82
2021/12/05 10:53:19;;;;;;;;;;;6.30;76.70;;;;;;5005732;28;19914;-83
2021/12/05 10:56:17;;;;;;;;;;;6.30;76.70;;;;;;4992615;28;19926;-83
2021/12/05 10:59:00;;;;;;;;;;;6.40;76.70;;;;;;4979168;28;19922;-83
2021/12/05 11:01:56;;;;;;;;;;;6.40;76.30;;;;;;5010236;28;19957;-82
2021/12/05 11:04:40;;;;;;;;;;;6.40;76.70;;;;;;4983481;28;19914;-82
2021/12/05 11:07:10;;;;;;;;;;;6.50;76.10;;;;;;4967817;28;19917;-83
2021/12/05 11:09:41;;;;;;;;;;;6.60;75.80;;;;;;4982806;28;20251;-83
2021/12/05 11:12:21;;;;;;;;;;;6.50;75.70;;;;;;4976430;28;19924;-82
2021/12/05 11:14:49;;;;;;;;;;;6.50;75.70;;;;;;4985790;28;20301;-83
2021/12/05 11:17:28;;;;;;;;;;;6.50;75.40;;;;;;4997319;28;20321;-82
2021/12/05 11:20:29;;;;;;;;;;;6.60;75.10;;;;;;5006636;28;19914;-84
2021/12/05 11:22:55;;;;;;;;;;;6.60;75.70;;;;;;4995690;28;19914;-84
2021/12/05 11:25:35;;;;;;;;;;;6.60;76.20;;;;;;4995645;28;19941;-84
2021/12/05 11:31:36;;;;;;;;;;;;;;;;;;;;;
2021/12/05 11:37:36;;;;;;;;;;;;;;;;;;;;;
2021/12/05 11:40:05;;;;;;;;;;;7.20;74.40;;;;;;4913870;29;19941;-83
2021/12/05 11:42:31;;;;;;;;;;;7.20;74.00;;;;;;4955634;28;19990;-82
2021/12/05 11:45:03;;;;;;;;;;;7.30;73.60;;;;;;4992730;28;20096;-83
2021/12/05 11:47:53;;;;;;;;;;;;;;;;;;;;;
2021/12/05 11:50:28;;;;;;;;;;;7.40;73.40;;;;;;4994648;28;19988;-84
2021/12/05 11:52:54;;;;;;;;;;;7.50;73.00;;;;;;4973573;28;19913;-83
2021/12/05 11:55:29;;;;;;;;;;;7.50;73.00;;;;;;4978852;28;19972;-84
2021/12/05 11:58:17;;;;;;;;;;;7.50;73.40;;;;;;4996375;28;19929;-83
2021/12/05 12:00:51;;;;;;;;;;;7.60;73.00;;;;;;4978343;28;19957;-84
2021/12/05 12:03:45;;;;;;;;;;;;;;;;;;;;;
2021/12/05 12:06:21;;;;;;;;;;;7.60;74.90;;;;;;4991734;28;20040;-83
2021/12/05 12:08:46;;;;;;;;;;;7.60;74.90;;;;;;4974965;28;19914;-81
2021/12/05 12:11:14;;;;;;;;;;;7.60;74.50;;;;;;4986804;28;19932;-83
2021/12/05 12:15:10;;;;;;;;;;;7.90;74.10;;;;;;5002648;28;20295;-84
2021/12/05 12:17:08;;;;;;;;;;;7.90;75.40;;;;;;4985803;28;19964;-84
2021/12/05 12:20:06;;;;;;;;;;;7.60;74.70;;;;;;5006100;28;19973;-83
2021/12/05 12:22:46;;;;;;;;;;;7.80;74.70;;;;;;4925542;28;19914;-82
2021/12/05 12:25:24;;;;;;;;;;;7.80;73.60;;;;;;4996285;28;19921;-85
2021/12/05 12:28:02;;;;;;;;;;;7.50;74.60;;;;;;4973682;28;20401;-85
2021/12/05 12:31:35;;;;;;;;;;;;;;;;;;;;;
2021/12/05 12:34:00;;;;;;;;;;;7.60;75.00;;;;;;4975482;28;19965;-86
2021/12/05 12:36:31;;;;;;;;;;;7.90;75.50;;;;;;4992886;28;19921;-88
2021/12/05 12:38:56;;;;;;;;;;;8.00;75.90;;;;;;4991264;28;19968;-81
2021/12/05 12:41:23;;;;;;;;;;;7.90;74.50;;;;;;4979121;28;19921;-82
2021/12/05 12:44:01;;;;;;;;;;;7.80;73.90;;;;;;4985541;28;19922;-81
2021/12/05 12:46:40;;;;;;;;;;;7.80;73.70;;;;;;4989756;28;19913;-82
2021/12/05 12:49:14;;;;;;;;;;;7.80;73.40;;;;;;4991536;28;19925;-80
2021/12/05 12:51:41;;;;;;;;;;;7.70;73.70;;;;;;4979359;28;19914;-81
2021/12/05 12:54:15;;;;;;;;;;;7.70;73.60;;;;;;4999685;28;19924;-81
2021/12/05 12:56:42;;;;;;;;;;;7.80;73.70;;;;;;4980509;28;19914;-81
2021/12/05 12:59:13;;;;;;;;;;;7.60;73.30;;;;;;4990862;28;20387;-82
2021/12/05 13:12:30;;;;;;;;;;;7.50;74.50;;;;;;4996763;28;20366;-84
2021/12/05 13:15:00;;;;;;;;;;;7.30;75.20;;;;;;4973202;28;19925;-84
2021/12/05 13:17:40;;;;;;;;;;;7.10;77.20;;;;;;4977698;28;20422;-85
2021/12/05 13:20:06;;;;;;;;;;;7.10;78.20;;;;;;4978262;28;19949;-85
2021/12/05 13:22:31;;;;;;;;;;;7.10;78.50;;;;;;4976980;28;19960;-85
2021/12/05 13:25:09;;;;;;;;;;;7.30;78.60;;;;;;5013161;28;19930;-85
2021/12/05 13:27:36;;;;;;;;;;;7.30;77.70;;;;;;4994829;28;19914;-84
2021/12/05 13:30:03;;;;;;;;;;;7.40;78.90;;;;;;4977058;28;19922;-84
2021/12/05 13:32:30;;;;;;;;;;;7.40;78.20;;;;;;4979146;28;19914;-85
2021/12/05 13:35:01;;;;;;;;;;;7.30;77.60;;;;;;4974708;28;19924;-85
2021/12/05 13:37:36;;;;;;;;;;;7.20;77.20;;;;;;4994629;28;20012;-85
2021/12/05 13:40:07;;;;;;;;;;;7.10;77.50;;;;;;4985729;28;19914;-86
2021/12/05 13:42:54;;;;;;;;;;;7.10;78.40;;;;;;5013615;28;19913;-87
2021/12/05 13:45:41;;;;;;;;;;;;;;;;;;;;;
2021/12/05 13:48:59;;;;;;;;;;;;;;;;;;;;;
2021/12/05 13:51:26;;;;;;;;;;;7.10;78.00;;;;;;5004254;28;19988;-86
2021/12/05 13:53:53;;;;;;;;;;;7.10;77.60;;;;;;4993513;28;19929;-82
2021/12/05 13:56:25;;;;;;;;;;;7.30;76.90;;;;;;5019806;28;19917;-83
2021/12/05 13:58:53;;;;;;;;;;;7.30;76.40;;;;;;4995418;28;19957;-82
2021/12/05 14:01:28;;;;;;;;;;;7.00;77.20;;;;;;4987330;28;19918;-84
2021/12/05 14:03:54;;;;;;;;;;;7.00;76.90;;;;;;5000119;28;19977;-82
2021/12/05 14:06:22;;;;;;;;;;;7.00;76.30;;;;;;4981748;28;19953;-83
2021/12/05 14:08:48;;;;;;;;;;;7.10;75.70;;;;;;4984033;28;19965;-82
2021/12/05 14:11:13;;;;;;;;;;;7.10;75.30;;;;;;4977554;28;19910;-82
2021/12/05 14:13:39;;;;;;;;;;;7.10;74.90;;;;;;5012578;28;19922;-82
2021/12/05 14:16:04;;;;;;;;;;;7.20;73.80;;;;;;4996448;28;20006;-82
2021/12/05 14:18:30;;;;;;;;;;;7.20;73.40;;;;;;4995788;28;19924;-82
2021/12/05 14:20:55;;;;;;;;;;;7.20;73.50;;;;;;4995777;28;20403;-81
2021/12/05 14:23:21;;;;;;;;;;;7.20;73.50;;;;;;5008945;28;20452;-82
2021/12/05 14:25:47;;;;;;;;;;;7.10;74.40;;;;;;5007501;28;20084;-82
2021/12/05 14:28:13;;;;;;;;;;;7.10;74.40;;;;;;4991598;28;20004;-80
2021/12/05 14:30:38;;;;;;;;;;;7.10;75.30;;;;;;4976494;28;19973;-82
2021/12/05 14:33:05;;;;;;;;;;;7.10;76.00;;;;;;4974927;28;19917;-82
2021/12/05 14:35:33;;;;;;;;;;;7.20;76.30;;;;;;5003396;28;19924;-81
2021/12/05 14:38:01;;;;;;;;;;;7.20;76.10;;;;;;4972523;28;19922;-81
2021/12/05 14:40:30;;;;;;;;;;;7.20;76.50;;;;;;4992439;28;19998;-81
2021/12/05 14:42:59;;;;;;;;;;;7.20;76.90;;;;;;4977513;28;19913;-80
2021/12/05 14:45:29;;;;;;;;;;;7.10;76.90;;;;;;5016368;28;19918;-80
2021/12/05 14:47:55;;;;;;;;;;;7.10;77.00;;;;;;4977294;28;19937;-81
2021/12/05 14:50:26;;;;;;;;;;;7.00;77.30;;;;;;4973374;28;19910;-81
2021/12/05 14:52:56;;;;;;;;;;;7.00;77.40;;;;;;4976454;28;19911;-83
2021/12/05 14:55:23;;;;;;;;;;;7.00;77.80;;;;;;4971004;28;19917;-83
2021/12/05 14:57:59;;;;;;;;;;;6.90;77.80;;;;;;5002921;28;20061;-83
2021/12/05 15:00:34;;;;;;;;;;;6.90;78.50;;;;;;4990339;28;19993;-82
2021/12/05 15:03:01;;;;;;;;;;;6.80;78.50;;;;;;4975383;28;20401;-82
2021/12/05 15:05:26;;;;;;;;;;;7.00;78.50;;;;;;4992337;28;20024;-81
2021/12/05 15:07:59;;;;;;;;;;;6.80;78.10;;;;;;4973380;28;20568;-82
2021/12/05 15:10:24;;;;;;;;;;;6.70;78.20;;;;;;4987722;28;19913;-82
2021/12/05 15:12:52;;;;;;;;;;;6.60;78.40;;;;;;4973640;28;20247;-83
2021/12/05 15:15:18;;;;;;;;;;;6.70;78.90;;;;;;5004840;28;19976;-84
2021/12/05 15:17:43;;;;;;;;;;;6.80;78.60;;;;;;5009363;28;20330;-83
2021/12/05 15:20:10;;;;;;;;;;;6.60;78.00;;;;;;4986841;28;19973;-84
2021/12/05 15:22:36;;;;;;;;;;;6.60;78.10;;;;;;4995573;28;19913;-85
2021/12/05 15:25:04;;;;;;;;;;;6.60;78.50;;;;;;4997157;28;19921;-82
2021/12/05 15:27:30;;;;;;;;;;;6.60;78.80;;;;;;4981592;28;19975;-83
2021/12/05 15:29:58;;;;;;;;;;;6.70;78.90;;;;;;4999782;28;20394;-83
2021/12/05 15:32:29;;;;;;;;;;;6.70;77.70;;;;;;4997140;28;19910;-82
2021/12/05 15:34:56;;;;;;;;;;;6.70;77.20;;;;;;4997701;28;19921;-82
2021/12/05 15:37:21;;;;;;;;;;;6.70;78.40;;;;;;4981625;28;19914;-84
2021/12/05 15:39:48;;;;;;;;;;;6.70;78.90;;;;;;5010052;28;19914;-82
2021/12/05 15:42:22;;;;;;;;;;;6.70;79.70;;;;;;4979288;28;19918;-84
2021/12/05 15:44:48;;;;;;;;;;;6.70;80.00;;;;;;4998143;28;19937;-84
2021/12/05 15:47:15;;;;;;;;;;;6.60;80.90;;;;;;4995819;28;19960;-85
2021/12/05 15:49:42;;;;;;;;;;;6.60;80.50;;;;;;4977378;28;19910;-83
2021/12/05 15:52:08;;;;;;;;;;;6.60;80.00;;;;;;4970695;28;20370;-83
2021/12/05 15:54:36;;;;;;;;;;;6.60;80.10;;;;;;4991910;28;19979;-84
2021/12/05 15:57:23;;;;;;;;;;;6.60;79.90;;;;;;4969707;28;19918;-84
2021/12/05 15:59:49;;;;;;;;;;;6.60;79.50;;;;;;4976324;28;19933;-85
2021/12/05 16:02:17;;;;;;;;;;;6.60;80.20;;;;;;4977002;28;19914;-84
2021/12/05 16:04:43;;;;;;;;;;;6.50;80.60;;;;;;4964749;28;19953;-84
2021/12/05 16:07:10;;;;;;;;;;;6.10;81.80;;;;;;4976516;28;19924;-85
2021/12/05 16:09:37;;;;;;;;;;;5.90;82.90;;;;;;4974143;28;20020;-84
2021/12/05 16:12:14;;;;;;;;;;;5.80;83.30;;;;;;4987540;28;19913;-84
2021/12/05 16:14:42;;;;;;;;;;;5.70;83.80;;;;;;4975229;28;19922;-84
2021/12/05 16:17:15;;;;;;;;;;;5.60;84.30;;;;;;4965915;28;20156;-83
2021/12/05 16:20:00;;;;;;;;;;;5.60;84.70;;;;;;4987375;28;20020;-82
2021/12/05 16:22:25;;;;;;;;;;;5.70;84.40;;;;;;4977077;28;19960;-82
2021/12/05 16:24:51;;;;;;;;;;;5.80;84.60;;;;;;4973366;28;19921;-81
2021/12/05 16:27:17;;;;;;;;;;;5.80;84.40;;;;;;4991060;28;19914;-80
2021/12/05 16:29:42;;;;;;;;;;;5.60;84.70;;;;;;4988176;28;19977;-80
2021/12/05 16:32:08;;;;;;;;;;;5.60;85.10;;;;;;4990339;28;19944;-80
2021/12/05 16:34:33;;;;;;;;;;;5.70;85.20;;;;;;4999688;28;19932;-80
2021/12/05 16:37:00;;;;;;;;;;;5.80;85.30;;;;;;4995053;28;19949;-80
2021/12/05 16:39:37;;;;;;;;;;;5.90;85.10;;;;;;4994225;28;19993;-82
2021/12/05 16:42:07;;;;;;;;;;;5.90;84.90;;;;;;4992457;28;20438;-82
2021/12/05 16:44:34;;;;;;;;;;;5.80;85.00;;;;;;4976907;28;19922;-83
2021/12/05 16:47:03;;;;;;;;;;;5.90;85.50;;;;;;4979941;28;19918;-84
2021/12/05 16:49:33;;;;;;;;;;;5.80;85.50;;;;;;4985975;28;19926;-81
2021/12/05 16:52:04;;;;;;;;;;;5.80;85.10;;;;;;4996114;28;19989;-82
2021/12/05 16:54:44;;;;;;;;;;;5.70;85.20;;;;;;5002779;28;19917;-82
2021/12/05 16:57:19;;;;;;;;;;;5.70;85.70;;;;;;5004354;28;19922;-82
2021/12/05 16:59:47;;;;;;;;;;;5.80;86.00;;;;;;5006627;28;20024;-85
2021/12/05 17:02:16;;;;;;;;;;;5.80;86.00;;;;;;5018915;28;19918;-83
2021/12/05 17:04:59;;;;;;;;;;;5.80;85.90;;;;;;5017969;28;19941;-83
2021/12/05 17:07:41;;;;;;;;;;;5.80;85.90;;;;;;4991881;28;19957;-83
2021/12/05 17:10:27;;;;;;;;;;;5.90;86.00;;;;;;4985193;28;19980;-83
2021/12/05 17:12:55;;;;;;;;;;;5.90;86.10;;;;;;4984319;28;19918;-83
2021/12/05 17:15:23;;;;;;;;;;;5.90;85.90;;;;;;4982908;28;19914;-82
2021/12/05 17:17:49;;;;;;;;;;;6.00;86.10;;;;;;4998757;28;19914;-83
2021/12/05 17:20:23;;;;;;;;;;;6.00;86.20;;;;;;5013783;28;20008;-85
2021/12/05 17:23:09;;;;;;;;;;;6.00;86.10;;;;;;4980185;28;19914;-82
2021/12/05 17:25:36;;;;;;;;;;;6.00;85.50;;;;;;4972874;28;19928;-81
2021/12/05 17:28:07;;;;;;;;;;;6.00;85.80;;;;;;4973901;28;20018;-82
2021/12/05 17:30:34;;;;;;;;;;;5.90;86.10;;;;;;4982852;28;19921;-81
2021/12/05 17:32:59;;;;;;;;;;;5.90;86.00;;;;;;4983003;28;19924;-82
2021/12/05 17:35:26;;;;;;;;;;;5.90;86.10;;;;;;4982798;28;20409;-82
2021/12/05 17:37:52;;;;;;;;;;;5.80;86.30;;;;;;4989389;28;19925;-81
2021/12/05 17:40:18;;;;;;;;;;;5.80;86.50;;;;;;4997480;28;19928;-82
2021/12/05 17:42:43;;;;;;;;;;;5.80;86.70;;;;;;4988220;28;20461;-81
2021/12/05 17:45:10;;;;;;;;;;;5.80;86.50;;;;;;4990600;28;19957;-82
2021/12/05 17:47:36;;;;;;;;;;;5.90;86.40;;;;;;5005655;28;19914;-82
2021/12/05 17:50:03;;;;;;;;;;;5.80;86.70;;;;;;4985843;28;20390;-81
2021/12/05 17:52:31;;;;;;;;;;;5.70;86.60;;;;;;4987917;28;19953;-80
2021/12/05 17:55:03;;;;;;;;;;;5.60;86.80;;;;;;4984926;28;19918;-80
2021/12/05 17:57:42;;;;;;;;;;;5.80;87.00;;;;;;5015833;28;19918;-80
2021/12/05 18:00:14;;;;;;;;;;;5.80;87.20;;;;;;5016770;28;20021;-81
2021/12/05 18:02:48;;;;;;;;;;;5.80;87.10;;;;;;5001907;28;19914;-81
2021/12/05 18:05:16;;;;;;;;;;;5.80;86.70;;;;;;5003889;28;19928;-80
2021/12/05 18:07:42;;;;;;;;;;;5.70;87.30;;;;;;5015327;28;19913;-81
2021/12/05 18:10:08;;;;;;;;;;;5.80;87.40;;;;;;4982933;28;19964;-81
2021/12/05 18:12:35;;;;;;;;;;;5.80;87.20;;;;;;4979509;28;19914;-81
2021/12/05 18:15:02;;;;;;;;;;;5.80;87.20;;;;;;4980357;28;19924;-80
2021/12/05 18:17:28;;;;;;;;;;;5.90;87.20;;;;;;4988800;28;19945;-82
2021/12/05 18:19:54;;;;;;;;;;;5.90;86.80;;;;;;4975193;28;19922;-80
2021/12/05 18:22:20;;;;;;;;;;;5.90;86.70;;;;;;4976211;28;19909;-81
2021/12/05 18:24:46;;;;;;;;;;;5.80;86.80;;;;;;4980355;28;20020;-80
2021/12/05 18:27:11;;;;;;;;;;;5.80;87.10;;;;;;5014591;28;19984;-82
2021/12/05 18:29:37;;;;;;;;;;;5.70;87.50;;;;;;4982353;28;19937;-82
2021/12/05 18:32:03;;;;;;;;;;;5.70;87.80;;;;;;5000488;28;19917;-82
2021/12/05 18:34:30;;;;;;;;;;;5.70;87.60;;;;;;4982960;28;20010;-82
2021/12/05 18:36:57;;;;;;;;;;;5.70;87.60;;;;;;4984849;28;19918;-82
2021/12/05 18:39:27;;;;;;;;;;;5.80;87.60;;;;;;4983422;28;19910;-81
2021/12/05 18:41:54;;;;;;;;;;;5.80;87.50;;;;;;4999943;28;19914;-83
2021/12/05 18:44:24;;;;;;;;;;;5.80;87.90;;;;;;4983566;28;19925;-83
2021/12/05 18:46:50;;;;;;;;;;;5.70;87.60;;;;;;4983178;28;19929;-81
2021/12/05 18:49:16;;;;;;;;;;;5.80;87.50;;;;;;4983169;28;19914;-82
2021/12/05 18:51:42;;;;;;;;;;;5.80;87.50;;;;;;4998804;28;19910;-83
2021/12/05 18:54:08;;;;;;;;;;;5.80;87.60;;;;;;4987232;28;19922;-82
2021/12/05 18:56:33;;;;;;;;;;;5.80;87.60;;;;;;4987490;28;20017;-81
2021/12/05 18:58:59;;;;;;;;;;;5.90;87.50;;;;;;4974964;28;19922;-82
2021/12/05 19:06:59;;;;;;;;;;;5.80;87.30;;;;;;4995156;28;19973;-83
2021/12/05 19:11:56;;;;;;;;;;;5.70;87.30;;;;;;4999874;28;19926;-83
2021/12/05 19:14:41;;;;;;;;;;;5.70;87.20;;;;;;4992462;28;20366;-82
2021/12/05 19:17:18;;;;;;;;;;;5.70;87.20;;;;;;4988787;28;19987;-81
2021/12/05 19:19:44;;;;;;;;;;;5.60;87.20;;;;;;4979436;28;19949;-82
2021/12/05 19:22:12;;;;;;;;;;;5.60;87.10;;;;;;5018402;28;19910;-82
2021/12/05 19:24:38;;;;;;;;;;;5.60;87.30;;;;;;4994078;28;20421;-82
2021/12/05 19:27:04;;;;;;;;;;;5.60;87.30;;;;;;4980189;28;19914;-82
2021/12/05 19:29:31;;;;;;;;;;;5.60;87.10;;;;;;4980165;28;19928;-82
2021/12/05 19:31:57;;;;;;;;;;;5.60;87.30;;;;;;4999028;28;19922;-83
2021/12/05 19:34:22;;;;;;;;;;;5.60;87.10;;;;;;4993809;28;19918;-83
2021/12/05 19:36:48;;;;;;;;;;;5.60;87.10;;;;;;5000490;28;19960;-83
2021/12/05 19:39:14;;;;;;;;;;;5.60;87.30;;;;;;4984264;28;19910;-83
2021/12/05 19:41:40;;;;;;;;;;;5.60;87.60;;;;;;4986809;28;19941;-84
2021/12/05 19:44:06;;;;;;;;;;;5.60;87.30;;;;;;5001888;28;19976;-84
2021/12/05 19:46:35;;;;;;;;;;;5.60;87.40;;;;;;4986173;28;20008;-84
2021/12/05 19:49:01;;;;;;;;;;;5.60;87.50;;;;;;5002626;28;19977;-84
2021/12/05 19:51:27;;;;;;;;;;;5.50;87.10;;;;;;5004090;28;19910;-84
2021/12/05 19:53:53;;;;;;;;;;;5.30;87.20;;;;;;4985301;28;19959;-84
2021/12/05 19:56:20;;;;;;;;;;;5.20;87.00;;;;;;4985051;28;19913;-85
2021/12/05 19:58:46;;;;;;;;;;;5.10;87.30;;;;;;5001225;28;19910;-84
2021/12/05 20:01:11;;;;;;;;;;;5.10;87.30;;;;;;5001410;28;19972;-83
2021/12/05 20:03:38;;;;;;;;;;;5.00;87.50;;;;;;4984300;28;19910;-83
2021/12/05 20:06:04;;;;;;;;;;;5.20;87.90;;;;;;4984586;28;19910;-83
2021/12/05 20:08:30;;;;;;;;;;;5.20;87.40;;;;;;4983556;28;19925;-84
2021/12/05 20:10:56;;;;;;;;;;;5.10;86.90;;;;;;4985781;28;19914;-84
2021/12/05 20:13:23;;;;;;;;;;;5.10;86.90;;;;;;4984276;28;19917;-84
2021/12/05 20:15:49;;;;;;;;;;;5.30;87.10;;;;;;4984392;28;19921;-83
2021/12/05 20:18:15;;;;;;;;;;;5.30;87.20;;;;;;4984742;28;20316;-83
2021/12/05 20:20:42;;;;;;;;;;;5.40;87.20;;;;;;4985298;28;19984;-84
2021/12/05 20:23:09;;;;;;;;;;;5.50;87.20;;;;;;4999624;28;19929;-85
2021/12/05 20:25:35;;;;;;;;;;;5.50;87.20;;;;;;4981062;28;20049;-85
2021/12/05 20:28:01;;;;;;;;;;;5.30;87.10;;;;;;4982699;28;19998;-85
2021/12/05 20:30:27;;;;;;;;;;;5.40;87.20;;;;;;4984695;28;19929;-84
2021/12/05 20:32:53;;;;;;;;;;;5.30;87.00;;;;;;4984856;28;19928;-85
2021/12/05 20:35:20;;;;;;;;;;;5.40;87.20;;;;;;4989757;28;19918;-85
2021/12/05 20:37:49;;;;;;;;;;;5.50;87.20;;;;;;4986998;28;19921;-83
2021/12/05 20:40:16;;;;;;;;;;;5.50;87.10;;;;;;4986467;28;19920;-84
2021/12/05 20:42:48;;;;;;;;;;;5.50;87.30;;;;;;4980724;28;20371;-84
2021/12/05 20:45:14;;;;;;;;;;;5.50;87.30;;;;;;4998200;28;19940;-84
2021/12/05 20:47:40;;;;;;;;;;;5.50;87.30;;;;;;4979159;28;20402;-84
2021/12/05 20:50:07;;;;;;;;;;;5.50;87.10;;;;;;5013292;28;19945;-83
2021/12/05 20:52:33;;;;;;;;;;;5.50;87.20;;;;;;4981314;28;19916;-84
2021/12/05 20:54:59;;;;;;;;;;;5.50;87.30;;;;;;4980558;28;19932;-84
2021/12/05 20:57:24;;;;;;;;;;;5.50;87.00;;;;;;4979861;28;19914;-82
2021/12/05 20:59:50;;;;;;;;;;;5.50;87.20;;;;;;4984555;28;19914;-83
2021/12/05 21:02:15;;;;;;;;;;;5.50;87.20;;;;;;5014260;28;20240;-82
2021/12/05 21:04:41;;;;;;;;;;;5.40;87.20;;;;;;4978635;28;20429;-82